createdAt,value
2022-11-21T00:01:22.444Z,2.22
2022-11-21T00:03:49.919Z,1.88
2022-11-21T00:06:17.741Z,1.83
2022-11-21T00:08:45.522Z,1.70
2022-11-21T00:11:13.194Z,2.10
2022-11-21T00:13:40.689Z,2.08
2022-11-21T00:16:13.457Z,2.03
2022-11-21T00:18:40.676Z,2.10
2022-11-21T00:21:11.162Z,2.40
2022-11-21T00:23:38.385Z,1.55
2022-11-21T00:26:10.556Z,1.80
2022-11-21T00:28:38.007Z,1.42
2022-11-21T00:31:05.709Z,1.38
2022-11-21T00:33:34.765Z,1.45
2022-11-21T00:36:10.985Z,1.80
2022-11-21T00:38:38.126Z,2.10
2022-11-21T00:41:06.201Z,1.83
2022-11-21T00:43:33.705Z,2.03
2022-11-21T00:46:02.965Z,2.10
2022-11-21T00:48:32.005Z,2.22
2022-11-21T00:51:00.678Z,1.83
2022-11-21T00:53:28.510Z,1.95
2022-11-21T00:55:55.648Z,1.60
2022-11-21T00:58:22.744Z,2.53
2022-11-21T01:00:49.921Z,1.95
2022-11-21T01:03:17.490Z,1.60
2022-11-21T01:05:44.653Z,1.90
2022-11-21T01:08:11.748Z,1.63
2022-11-21T01:10:38.816Z,2.08
2022-11-21T01:13:05.948Z,1.67
2022-11-21T01:15:34.304Z,1.95
2022-11-21T01:18:01.401Z,1.92
2022-11-21T01:20:28.549Z,2.95
2022-11-21T01:22:55.687Z,2.20
2022-11-21T01:25:22.808Z,1.92
2022-11-21T01:27:49.903Z,2.78
2022-11-21T01:30:17.425Z,1.48
2022-11-21T01:32:48.991Z,1.70
2022-11-21T01:35:16.916Z,1.65
2022-11-21T01:37:47.731Z,1.70
2022-11-21T01:40:15.425Z,1.60
2022-11-21T01:43:02.583Z,1.95
2022-11-21T01:45:57.532Z,2.55
2022-11-21T01:48:27.581Z,1.95
2022-11-21T01:50:56.439Z,2.45
2022-11-21T01:53:23.751Z,1.55
2022-11-21T01:55:51.575Z,1.55
2022-11-21T01:58:19.627Z,2.47
2022-11-21T02:00:48.353Z,2.03
2022-11-21T02:03:19.676Z,1.48
2022-11-21T02:05:47.524Z,1.90
2022-11-21T02:08:19.866Z,1.80
2022-11-21T02:11:12.391Z,2.17
2022-11-21T02:13:39.576Z,1.70
2022-11-21T02:16:07.298Z,1.52
2022-11-21T02:18:34.708Z,1.60
2022-11-21T02:21:46.385Z,1.25
2022-11-21T02:24:43.757Z,1.50
2022-11-21T02:27:11.015Z,1.67
2022-11-21T02:29:40.478Z,1.58
2022-11-21T02:32:07.598Z,1.50
2022-11-21T02:34:34.740Z,1.30
2022-11-21T02:37:02.744Z,1.50
2022-11-21T02:39:36.834Z,1.45
2022-11-21T02:42:07.048Z,1.40
2022-11-21T02:45:00.678Z,2.58
2022-11-21T02:47:29.282Z,1.27
2022-11-21T02:50:19.828Z,1.35
2022-11-21T02:52:46.937Z,1.25
2022-11-21T02:55:15.642Z,1.67
2022-11-21T02:57:43.048Z,1.33
2022-11-21T03:00:11.267Z,1.40
2022-11-21T03:02:38.444Z,1.85
2022-11-21T03:05:07.671Z,1.80
2022-11-21T03:07:35.258Z,2.03
2022-11-21T03:10:02.366Z,1.55
2022-11-21T03:12:29.575Z,1.10
2022-11-21T03:14:56.630Z,1.10
2022-11-21T03:17:23.702Z,1.30
2022-11-21T03:19:50.766Z,1.30
2022-11-21T03:22:17.818Z,1.85
2022-11-21T03:24:44.889Z,2.45
2022-11-21T03:27:12.006Z,2.00
2022-11-21T03:29:39.170Z,1.98
2022-11-21T03:32:06.435Z,1.27
2022-11-21T03:34:33.722Z,2.55
2022-11-21T03:37:00.963Z,1.40
2022-11-21T03:39:29.480Z,1.00
2022-11-21T03:41:57.121Z,1.40
2022-11-21T03:44:24.474Z,1.17
2022-11-21T03:46:51.611Z,1.75
2022-11-21T03:49:18.735Z,1.27
2022-11-21T03:51:45.849Z,1.00
2022-11-21T03:54:12.970Z,1.20
2022-11-21T03:56:40.031Z,1.45
2022-11-21T03:59:07.189Z,1.40
2022-11-21T04:01:36.810Z,1.70
2022-11-21T04:04:05.144Z,1.10
2022-11-21T04:06:32.304Z,0.90
2022-11-21T04:08:59.483Z,1.25
2022-11-21T04:11:26.633Z,1.38
2022-11-21T04:13:53.719Z,1.35
2022-11-21T04:16:21.095Z,1.23
2022-11-21T04:18:48.263Z,1.60
2022-11-21T04:21:15.404Z,1.40
2022-11-21T04:23:42.488Z,1.45
2022-11-21T04:26:09.634Z,1.52
2022-11-21T04:28:36.718Z,1.48
2022-11-21T04:31:10.239Z,1.13
2022-11-21T04:33:38.950Z,1.50
2022-11-21T04:36:07.707Z,1.45
2022-11-21T04:38:35.009Z,1.52
2022-11-21T04:41:02.158Z,1.30
2022-11-21T04:43:29.357Z,1.33
2022-11-21T04:45:56.428Z,0.90
2022-11-21T04:48:24.744Z,1.60
2022-11-21T04:50:51.847Z,1.08
2022-11-21T04:53:18.920Z,0.80
2022-11-21T04:55:46.023Z,1.90
2022-11-21T04:58:13.845Z,1.35
2022-11-21T05:00:40.908Z,1.40
2022-11-21T05:03:08.080Z,1.45
2022-11-21T05:05:35.158Z,1.10
2022-11-21T05:08:02.217Z,1.98
2022-11-21T05:10:29.423Z,1.70
2022-11-21T05:13:17.177Z,1.85
2022-11-21T05:15:44.530Z,1.27
2022-11-21T05:18:11.921Z,1.30
2022-11-21T05:20:39.013Z,1.30
2022-11-21T05:23:06.237Z,1.30
2022-11-21T05:25:33.314Z,1.42
2022-11-21T05:28:00.372Z,0.93
2022-11-21T05:30:27.565Z,1.48
2022-11-21T05:32:54.668Z,1.70
2022-11-21T05:35:21.772Z,2.15
2022-11-21T05:37:49.165Z,1.50
2022-11-21T05:40:16.726Z,1.77
2022-11-21T05:43:02.385Z,1.25
2022-11-21T05:45:29.458Z,1.30
2022-11-21T05:47:56.521Z,2.03
2022-11-21T05:50:23.605Z,1.90
2022-11-21T05:52:50.680Z,1.83
2022-11-21T05:55:17.742Z,2.25
2022-11-21T05:57:44.879Z,1.80
2022-11-21T06:00:12.453Z,1.77
2022-11-21T06:02:58.050Z,1.73
2022-11-21T06:05:25.239Z,2.33
2022-11-21T06:07:52.357Z,1.88
2022-11-21T06:10:19.449Z,1.95
2022-11-21T06:12:46.569Z,2.00
2022-11-21T06:15:13.787Z,2.42
2022-11-21T06:17:40.886Z,1.90
2022-11-21T06:20:08.831Z,2.38
2022-11-21T06:22:35.949Z,3.13
2022-11-21T06:25:03.263Z,2.50
2022-11-21T06:27:30.608Z,2.08
2022-11-21T06:29:57.678Z,1.90
2022-11-21T06:32:24.830Z,2.00
2022-11-21T06:34:52.140Z,3.13
2022-11-21T06:37:19.361Z,2.42
2022-11-21T06:39:46.608Z,3.10
2022-11-21T06:42:13.787Z,3.63
2022-11-21T06:44:40.930Z,2.70
2022-11-21T06:47:08.086Z,3.15
2022-11-21T06:49:35.191Z,3.40
2022-11-21T06:52:02.328Z,2.15
2022-11-21T06:54:29.896Z,2.33
2022-11-21T06:56:58.968Z,2.88
2022-11-21T06:59:26.056Z,2.35
2022-11-21T07:01:53.159Z,2.40
2022-11-21T07:04:20.449Z,2.75
2022-11-21T07:06:47.631Z,2.45
2022-11-21T07:12:21.097Z,2.63
2022-11-21T07:14:48.378Z,2.40
2022-11-21T07:17:16.016Z,1.63
2022-11-21T07:19:43.158Z,2.70
2022-11-21T07:22:10.336Z,2.25
2022-11-21T07:24:37.469Z,2.60
2022-11-21T07:27:04.608Z,2.65
2022-11-21T07:29:31.991Z,2.35
2022-11-21T07:31:59.231Z,2.13
2022-11-21T07:34:26.365Z,2.25
2022-11-21T07:36:53.894Z,2.22
2022-11-21T07:39:21.004Z,2.85
2022-11-21T07:41:48.163Z,2.35
2022-11-21T07:44:15.260Z,1.83
2022-11-21T07:46:42.466Z,2.20
2022-11-21T07:49:09.619Z,2.63
2022-11-21T07:51:36.715Z,2.40
2022-11-21T07:54:04.006Z,2.40
2022-11-21T07:56:31.119Z,1.88
2022-11-21T07:58:58.271Z,1.95
2022-11-21T08:01:25.482Z,2.40
2022-11-21T08:03:52.622Z,2.47
2022-11-21T08:06:19.746Z,2.45
2022-11-21T08:08:48.208Z,1.85
2022-11-21T08:11:15.321Z,2.17
2022-11-21T08:13:42.402Z,2.30
2022-11-21T08:16:09.476Z,1.80
2022-11-21T08:18:36.575Z,2.55
2022-11-21T08:21:05.418Z,2.25
2022-11-21T08:23:32.811Z,2.30
2022-11-21T08:26:00.247Z,2.47
2022-11-21T08:28:27.838Z,1.95
2022-11-21T08:30:54.943Z,2.08
2022-11-21T08:33:22.161Z,2.25
2022-11-21T08:35:49.305Z,2.75
2022-11-21T08:38:16.416Z,1.90
2022-11-21T08:40:43.557Z,2.20
2022-11-21T08:43:10.775Z,1.98
2022-11-21T08:45:39.849Z,2.10
2022-11-21T08:48:13.127Z,2.35
2022-11-21T08:50:40.426Z,1.70
2022-11-21T08:53:07.617Z,1.88
2022-11-21T08:55:34.774Z,1.77
2022-11-21T08:58:01.882Z,1.75
2022-11-21T09:00:29.391Z,2.15
2022-11-21T09:02:56.517Z,2.72
2022-11-21T09:05:23.607Z,2.90
2022-11-21T09:07:57.519Z,1.80
2022-11-21T09:10:29.559Z,1.98
2022-11-21T09:13:00.002Z,2.67
2022-11-21T09:15:45.597Z,2.05
2022-11-21T09:18:12.953Z,1.80
2022-11-21T09:20:42.266Z,2.33
2022-11-21T09:23:12.493Z,1.75
2022-11-21T09:25:40.043Z,2.00
2022-11-21T09:28:08.930Z,1.92
2022-11-21T09:30:36.824Z,2.42
2022-11-21T09:33:10.510Z,2.50
2022-11-21T09:35:38.128Z,2.35
2022-11-21T09:38:05.459Z,2.45
2022-11-21T09:40:34.822Z,2.40
2022-11-21T09:43:39.628Z,1.55
2022-11-21T09:46:12.784Z,2.08
2022-11-21T09:48:52.193Z,1.80
2022-11-21T09:51:21.733Z,1.95
2022-11-21T09:54:02.030Z,1.98
2022-11-21T09:56:33.505Z,2.15
2022-11-21T09:59:36.217Z,2.80
2022-11-21T10:02:13.886Z,1.65
2022-11-21T10:04:41.034Z,1.52
2022-11-21T10:07:15.949Z,2.80
2022-11-21T10:10:11.382Z,3.88
2022-11-21T10:12:50.530Z,1.40
2022-11-21T10:15:32.351Z,2.38
2022-11-21T10:18:36.866Z,2.80
2022-11-21T10:21:15.918Z,2.00
2022-11-21T10:24:04.923Z,3.53
2022-11-21T10:26:53.465Z,2.20
2022-11-21T10:29:28.542Z,2.08
2022-11-21T10:31:59.442Z,3.30
2022-11-21T10:34:31.410Z,2.92
2022-11-21T10:37:13.455Z,2.22
2022-11-21T10:39:45.472Z,2.60
2022-11-21T10:42:32.994Z,2.90
2022-11-21T10:45:16.655Z,2.80
2022-11-21T10:47:48.964Z,2.28
2022-11-21T10:52:52.212Z,4.13
2022-11-21T10:55:19.443Z,3.05
2022-11-21T10:57:49.105Z,2.22
2022-11-21T11:00:20.201Z,3.22
2022-11-21T11:03:15.872Z,2.63
2022-11-21T11:05:55.644Z,2.90
2022-11-21T11:08:22.791Z,2.88
2022-11-21T11:11:12.786Z,2.72
2022-11-21T11:13:59.439Z,2.60
2022-11-21T11:16:28.371Z,2.72
2022-11-21T11:18:55.495Z,3.67
2022-11-21T11:21:29.146Z,2.47
2022-11-21T11:24:20.428Z,3.30
2022-11-21T11:26:48.570Z,1.95
2022-11-21T11:29:22.501Z,3.25
2022-11-21T11:32:21.135Z,2.92
2022-11-21T11:34:57.395Z,3.08
2022-11-21T11:37:27.519Z,3.65
2022-11-21T11:40:22.841Z,2.88
2022-11-21T11:43:42.057Z,3.00
2022-11-21T11:46:55.463Z,2.40
2022-11-21T11:50:13.112Z,3.75
2022-11-21T11:52:47.070Z,2.72
2022-11-21T11:55:24.011Z,2.72
2022-11-21T11:57:54.053Z,5.30
2022-11-21T12:00:44.859Z,3.85
2022-11-21T12:03:24.022Z,2.55
2022-11-21T12:06:09.152Z,2.78
2022-11-21T12:08:47.496Z,3.05
2022-11-21T12:12:08.629Z,4.00
2022-11-21T12:15:08.783Z,4.82
2022-11-21T12:17:48.306Z,4.63
2022-11-21T12:20:23.383Z,3.53
2022-11-21T12:22:52.689Z,4.38
2022-11-21T12:25:25.831Z,3.67
2022-11-21T12:27:56.165Z,3.05
2022-11-21T12:30:35.400Z,3.67
2022-11-21T12:33:22.225Z,2.65
2022-11-21T12:36:17.510Z,3.03
2022-11-21T12:39:09.548Z,2.78
2022-11-21T12:42:27.040Z,3.88
2022-11-21T12:45:32.475Z,3.78
2022-11-21T12:48:39.543Z,2.58
2022-11-21T12:51:49.449Z,2.95
2022-11-21T12:54:50.180Z,2.47
2022-11-21T12:57:21.950Z,2.58
2022-11-21T12:59:54.801Z,3.33
2022-11-21T13:02:33.789Z,3.60
2022-11-21T13:05:04.831Z,3.22
2022-11-21T13:07:33.072Z,2.22
2022-11-21T13:10:02.810Z,2.85
2022-11-21T13:12:45.792Z,2.70
2022-11-21T13:15:38.569Z,3.47
2022-11-21T13:18:25.619Z,2.58
2022-11-21T13:20:52.999Z,2.08
2022-11-21T13:23:39.187Z,1.52
2022-11-21T13:26:24.577Z,2.72
2022-11-21T13:29:07.058Z,1.67
2022-11-21T13:34:03.268Z,1.20
2022-11-21T13:36:30.415Z,1.48
2022-11-21T13:38:57.516Z,1.50
2022-11-21T13:41:55.277Z,1.42
2022-11-21T13:44:31.717Z,1.10
2022-11-21T13:47:01.374Z,1.75
2022-11-21T13:49:38.987Z,1.00
2022-11-21T13:52:23.848Z,1.33
2022-11-21T13:55:09.446Z,1.50
2022-11-21T13:57:45.160Z,1.23
2022-11-21T14:00:38.163Z,0.95
2022-11-21T14:03:37.089Z,1.17
2022-11-21T14:06:44.267Z,1.38
2022-11-21T14:09:25.189Z,1.13
2022-11-21T14:11:59.943Z,1.23
2022-11-21T14:14:40.599Z,1.40
2022-11-21T14:17:44.730Z,1.30
2022-11-21T14:20:25.750Z,1.45
2022-11-21T14:23:04.658Z,1.25
2022-11-21T14:25:41.753Z,1.45
2022-11-21T14:28:14.537Z,0.90
2022-11-21T14:30:43.893Z,1.50
2022-11-21T14:33:28.834Z,1.67
2022-11-21T14:36:07.983Z,1.55
2022-11-21T14:38:51.074Z,1.20
2022-11-21T14:41:29.593Z,1.20
2022-11-21T14:44:02.900Z,1.80
2022-11-21T14:46:38.017Z,1.23
2022-11-21T14:49:17.001Z,2.00
2022-11-21T14:52:03.231Z,1.63
2022-11-21T14:54:40.159Z,1.63
2022-11-21T14:57:08.739Z,0.98
2022-11-21T14:59:39.428Z,1.45
2022-11-21T15:02:21.971Z,1.20
2022-11-21T15:07:31.489Z,1.60
2022-11-21T15:12:54.230Z,1.33
2022-11-21T15:15:21.553Z,1.13
2022-11-21T15:18:25.873Z,0.75
2022-11-21T15:20:49.333Z,0.60
2022-11-21T15:23:43.050Z,1.05
2022-11-21T15:26:29.299Z,0.80
2022-11-21T15:28:58.526Z,0.70
2022-11-21T15:31:26.648Z,1.00
2022-11-21T15:34:33.225Z,0.52
2022-11-21T15:37:04.687Z,1.15
2022-11-21T15:39:33.399Z,2.35
2022-11-21T15:42:46.834Z,1.15
2022-11-21T15:45:20.263Z,1.38
2022-11-21T15:47:48.612Z,1.20
2022-11-21T15:50:16.664Z,1.02
2022-11-21T15:52:51.627Z,0.90
2022-11-21T15:55:22.187Z,0.90
2022-11-21T15:57:49.490Z,0.90
2022-11-21T16:00:17.719Z,0.90
2022-11-21T16:02:44.898Z,0.88
2022-11-21T16:05:14.114Z,1.13
2022-11-21T16:07:41.916Z,0.88
2022-11-21T16:10:15.592Z,1.65
2022-11-21T16:12:48.544Z,1.15
2022-11-21T16:15:15.691Z,1.20
2022-11-21T16:17:45.049Z,0.98
2022-11-21T16:20:12.408Z,0.80
2022-11-21T16:22:45.728Z,0.98
2022-11-21T16:25:15.211Z,1.10
2022-11-21T16:27:42.386Z,0.82
2022-11-21T16:30:09.861Z,1.02
2022-11-21T16:32:36.987Z,1.40
2022-11-21T16:35:04.611Z,2.10
2022-11-21T16:37:32.713Z,1.00
2022-11-21T16:39:59.837Z,1.10
2022-11-21T16:42:26.943Z,1.23
2022-11-21T16:44:54.017Z,2.67
2022-11-21T16:47:21.173Z,2.40
2022-11-21T16:49:49.163Z,6.47
2022-11-21T16:52:18.280Z,2.20
2022-11-21T16:54:47.015Z,4.85
2022-11-21T16:57:14.490Z,1.60
2022-11-21T16:59:41.623Z,0.95
2022-11-21T17:02:10.373Z,2.53
2022-11-21T17:04:37.481Z,6.93
2022-11-21T17:07:04.716Z,7.53
2022-11-21T17:09:31.858Z,6.82
2022-11-21T17:11:59.312Z,4.15
2022-11-21T17:14:27.182Z,4.85
2022-11-21T17:16:54.636Z,2.65
2022-11-21T17:19:22.393Z,1.88
2022-11-21T17:21:49.478Z,1.33
2022-11-21T17:24:16.870Z,0.70
2022-11-21T17:26:44.015Z,0.82
2022-11-21T17:29:11.196Z,0.50
2022-11-21T17:31:38.600Z,0.25
2022-11-21T17:34:05.819Z,0.50
2022-11-21T17:36:34.653Z,0.57
2022-11-21T17:39:02.216Z,1.02
2022-11-21T17:41:29.476Z,1.85
2022-11-21T17:43:57.948Z,4.07
2022-11-21T17:46:25.889Z,3.60
2022-11-21T17:48:57.183Z,6.35
2022-11-21T17:51:28.950Z,2.35
2022-11-21T17:53:56.179Z,3.17
2022-11-21T17:56:25.618Z,6.00
2022-11-21T17:58:52.862Z,7.18
2022-11-21T18:01:21.008Z,6.25
2022-11-21T18:04:01.849Z,8.18
2022-11-21T18:06:37.696Z,2.40
2022-11-21T18:09:07.363Z,5.63
2022-11-21T18:11:39.590Z,3.25
2022-11-21T18:14:08.437Z,1.27
2022-11-21T18:16:36.372Z,1.30
2022-11-21T18:19:03.549Z,1.88
2022-11-21T18:21:33.211Z,2.65
2022-11-21T18:24:00.567Z,1.25
2022-11-21T18:26:30.134Z,1.77
2022-11-21T18:31:46.785Z,0.90
2022-11-21T18:34:13.932Z,2.00
2022-11-21T18:36:41.148Z,1.63
2022-11-21T18:39:14.217Z,1.23
2022-11-21T18:41:43.445Z,1.63
2022-11-21T18:44:11.487Z,1.50
2022-11-21T18:46:40.764Z,1.75
2022-11-21T18:49:08.596Z,1.35
2022-11-21T18:51:36.495Z,1.88
2022-11-21T18:54:08.771Z,1.40
2022-11-21T18:56:37.912Z,5.88
2022-11-21T18:59:06.546Z,22.73
2022-11-21T19:01:35.593Z,32.47
2022-11-21T19:04:02.932Z,30.77
2022-11-21T19:06:30.103Z,20.25
2022-11-21T19:08:58.714Z,9.98
2022-11-21T19:11:28.633Z,21.63
2022-11-21T19:13:57.208Z,27.13
2022-11-21T19:16:26.298Z,34.40
2022-11-21T19:21:42.608Z,6.22
2022-11-21T19:24:15.135Z,8.18
2022-11-21T19:26:43.370Z,5.78
2022-11-21T19:29:10.967Z,4.57
2022-11-21T19:31:44.779Z,7.30
2022-11-21T19:34:14.161Z,4.53
2022-11-21T19:36:41.951Z,5.25
2022-11-21T19:39:09.414Z,4.25
2022-11-21T19:41:36.920Z,4.72
2022-11-21T19:44:04.635Z,4.35
2022-11-21T19:46:38.551Z,5.05
2022-11-21T19:49:06.908Z,3.72
2022-11-21T19:51:40.257Z,5.88
2022-11-21T19:54:09.010Z,4.43
2022-11-21T19:56:36.846Z,5.63
2022-11-21T19:59:04.523Z,2.85
2022-11-21T20:01:33.256Z,6.25
2022-11-21T20:04:03.236Z,6.45
2022-11-21T20:06:36.054Z,4.13
2022-11-21T20:09:12.709Z,4.55
2022-11-21T20:11:41.171Z,5.50
2022-11-21T20:14:08.605Z,3.75
2022-11-21T20:16:38.765Z,4.00
2022-11-21T20:19:17.363Z,6.82
2022-11-21T20:21:45.807Z,4.32
2022-11-21T20:24:14.243Z,14.38
2022-11-21T20:26:41.911Z,9.05
2022-11-21T20:29:11.991Z,6.40
2022-11-21T20:31:40.004Z,5.13
2022-11-21T20:34:12.643Z,7.50
2022-11-21T20:36:40.936Z,20.88
2022-11-21T20:39:15.423Z,11.40
2022-11-21T20:41:42.642Z,11.40
2022-11-21T20:47:09.204Z,8.30
2022-11-21T20:49:36.448Z,5.68
2022-11-21T20:54:50.957Z,11.32
2022-11-21T20:57:18.110Z,6.45
2022-11-21T20:59:45.246Z,5.38
2022-11-21T21:02:14.003Z,6.18
2022-11-21T21:04:41.853Z,3.22
2022-11-21T21:07:09.099Z,2.83
2022-11-21T21:09:36.407Z,5.15
2022-11-21T21:12:04.093Z,4.28
2022-11-21T21:14:31.325Z,3.55
2022-11-21T21:16:58.426Z,4.45
2022-11-21T21:19:25.553Z,5.30
2022-11-21T21:21:52.642Z,3.17
2022-11-21T21:24:19.795Z,3.20
2022-11-21T21:26:48.905Z,2.42
2022-11-21T21:29:19.866Z,2.30
2022-11-21T21:31:51.449Z,5.60
2022-11-21T21:34:20.335Z,4.57
2022-11-21T21:36:47.656Z,16.65
2022-11-21T21:39:14.823Z,8.48
2022-11-21T21:41:47.349Z,6.05
2022-11-21T21:44:15.837Z,5.40
2022-11-21T21:46:43.291Z,6.80
2022-11-21T21:49:10.706Z,7.15
2022-11-21T21:51:38.268Z,10.13
2022-11-21T21:54:06.482Z,4.75
2022-11-21T21:56:34.136Z,5.75
2022-11-21T21:59:01.276Z,3.05
2022-11-21T22:01:31.102Z,2.50
2022-11-21T22:04:00.857Z,2.55
2022-11-21T22:06:29.050Z,2.72
2022-11-21T22:08:56.712Z,2.60
2022-11-21T22:11:26.242Z,3.13
2022-11-21T22:13:58.631Z,2.25
2022-11-21T22:16:26.193Z,2.70
2022-11-21T22:18:54.079Z,1.95
2022-11-21T22:21:21.197Z,2.42
2022-11-21T22:24:23.042Z,2.70
2022-11-21T22:26:35.573Z,2.80
2022-11-21T22:29:02.745Z,2.00
2022-11-21T22:31:31.490Z,2.15
2022-11-21T22:33:59.101Z,2.72
2022-11-21T22:36:26.496Z,3.00
2022-11-21T22:38:54.891Z,3.00
2022-11-21T22:41:24.478Z,5.20
2022-11-21T22:43:56.688Z,3.47
2022-11-21T22:48:51.807Z,1.50
2022-11-21T22:51:21.704Z,1.67
2022-11-21T22:53:49.924Z,1.45
2022-11-21T22:56:19.756Z,1.48
2022-11-21T22:58:47.677Z,1.75
2022-11-21T23:01:22.299Z,1.30
2022-11-21T23:03:50.220Z,1.30
2022-11-21T23:06:20.072Z,1.65
2022-11-21T23:08:47.814Z,1.42
2022-11-21T23:11:16.492Z,1.38
2022-11-21T23:13:45.320Z,1.60
2022-11-21T23:16:13.514Z,1.20
2022-11-21T23:18:41.155Z,1.17
2022-11-21T23:21:09.347Z,1.42
2022-11-21T23:23:36.612Z,1.25
2022-11-21T23:26:04.845Z,1.33
2022-11-21T23:28:32.189Z,1.50
2022-11-21T23:30:59.642Z,1.75
2022-11-21T23:33:26.887Z,1.00
2022-11-21T23:35:54.098Z,1.45
2022-11-21T23:38:21.944Z,2.38
2022-11-21T23:40:50.119Z,1.30
2022-11-21T23:43:18.161Z,1.17
2022-11-21T23:45:49.849Z,1.70
2022-11-21T23:48:17.275Z,2.22
2022-11-21T23:50:45.539Z,1.30
2022-11-21T23:53:13.071Z,1.70
2022-11-21T23:55:40.209Z,1.80
2022-11-21T23:58:08.130Z,1.15
